sensor_id;sensor_type;location;lat;lon;timestamp;P1;durP1;ratioP1;P2;durP2;ratioP2
6376;SDS011;3221;48.858;10.128;2022-12-08T00:01:17;12.60;;;9.40;;
6376;SDS011;3221;48.858;10.128;2022-12-08T00:03:45;14.97;;;10.50;;
6376;SDS011;3221;48.858;10.128;2022-12-08T00:06:29;15.33;;;10.27;;
6376;SDS011;3221;48.858;10.128;2022-12-08T00:09:20;15.67;;;11.23;;
6376;SDS011;3221;48.858;10.128;2022-12-08T00:11:52;16.17;;;10.60;;
6376;SDS011;3221;48.858;10.128;2022-12-08T00:14:27;16.60;;;11.57;;
6376;SDS011;3221;48.858;10.128;2022-12-08T00:16:58;18.07;;;11.57;;
6376;SDS011;3221;48.858;10.128;2022-12-08T00:19:26;18.40;;;12.10;;
6376;SDS011;3221;48.858;10.128;2022-12-08T00:21:53;18.63;;;12.27;;
6376;SDS011;3221;48.858;10.128;2022-12-08T00:24:21;17.90;;;12.10;;
6376;SDS011;3221;48.858;10.128;2022-12-08T00:26:49;19.07;;;12.20;;
6376;SDS011;3221;48.858;10.128;2022-12-08T00:29:16;16.80;;;11.93;;
6376;SDS011;3221;48.858;10.128;2022-12-08T00:31:43;18.20;;;12.87;;
6376;SDS011;3221;48.858;10.128;2022-12-08T00:34:11;17.97;;;12.60;;
6376;SDS011;3221;48.858;10.128;2022-12-08T00:36:39;21.07;;;13.97;;
6376;SDS011;3221;48.858;10.128;2022-12-08T00:39:06;19.67;;;13.03;;
6376;SDS011;3221;48.858;10.128;2022-12-08T00:41:33;17.63;;;12.63;;
6376;SDS011;3221;48.858;10.128;2022-12-08T00:44:18;21.47;;;15.00;;
6376;SDS011;3221;48.858;10.128;2022-12-08T00:46:45;22.03;;;15.63;;
6376;SDS011;3221;48.858;10.128;2022-12-08T00:49:14;23.00;;;15.37;;
6376;SDS011;3221;48.858;10.128;2022-12-08T00:51:41;23.93;;;14.73;;
6376;SDS011;3221;48.858;10.128;2022-12-08T00:54:09;22.10;;;15.33;;
6376;SDS011;3221;48.858;10.128;2022-12-08T00:56:36;23.17;;;15.50;;
6376;SDS011;3221;48.858;10.128;2022-12-08T00:59:04;21.63;;;14.87;;
6376;SDS011;3221;48.858;10.128;2022-12-08T01:01:32;22.53;;;14.57;;
6376;SDS011;3221;48.858;10.128;2022-12-08T01:04:18;20.53;;;13.83;;
6376;SDS011;3221;48.858;10.128;2022-12-08T01:06:45;20.70;;;13.77;;
6376;SDS011;3221;48.858;10.128;2022-12-08T01:09:13;20.03;;;14.47;;
6376;SDS011;3221;48.858;10.128;2022-12-08T01:11:40;21.63;;;14.33;;
6376;SDS011;3221;48.858;10.128;2022-12-08T01:14:07;19.83;;;14.30;;
6376;SDS011;3221;48.858;10.128;2022-12-08T01:16:34;19.10;;;13.60;;
6376;SDS011;3221;48.858;10.128;2022-12-08T01:19:02;20.73;;;13.33;;
6376;SDS011;3221;48.858;10.128;2022-12-08T01:21:29;18.57;;;12.97;;
6376;SDS011;3221;48.858;10.128;2022-12-08T01:23:57;19.47;;;12.93;;
6376;SDS011;3221;48.858;10.128;2022-12-08T01:26:25;18.83;;;12.83;;
6376;SDS011;3221;48.858;10.128;2022-12-08T01:28:52;17.27;;;12.57;;
6376;SDS011;3221;48.858;10.128;2022-12-08T01:31:20;18.93;;;13.50;;
6376;SDS011;3221;48.858;10.128;2022-12-08T01:33:47;20.03;;;13.53;;
6376;SDS011;3221;48.858;10.128;2022-12-08T01:36:27;17.30;;;12.37;;
6376;SDS011;3221;48.858;10.128;2022-12-08T01:38:57;17.30;;;12.43;;
6376;SDS011;3221;48.858;10.128;2022-12-08T01:41:26;17.20;;;12.77;;
6376;SDS011;3221;48.858;10.128;2022-12-08T01:43:59;19.97;;;13.47;;
6376;SDS011;3221;48.858;10.128;2022-12-08T01:46:27;17.60;;;12.47;;
6376;SDS011;3221;48.858;10.128;2022-12-08T01:51:32;17.80;;;12.50;;
6376;SDS011;3221;48.858;10.128;2022-12-08T01:54:03;18.50;;;12.50;;
6376;SDS011;3221;48.858;10.128;2022-12-08T01:56:35;18.07;;;12.83;;
6376;SDS011;3221;48.858;10.128;2022-12-08T01:59:08;17.17;;;13.03;;
6376;SDS011;3221;48.858;10.128;2022-12-08T02:01:36;18.27;;;12.23;;
6376;SDS011;3221;48.858;10.128;2022-12-08T02:04:04;18.30;;;12.80;;
6376;SDS011;3221;48.858;10.128;2022-12-08T02:06:33;17.57;;;12.03;;
6376;SDS011;3221;48.858;10.128;2022-12-08T02:09:02;16.83;;;11.73;;
6376;SDS011;3221;48.858;10.128;2022-12-08T02:11:31;16.60;;;11.97;;
6376;SDS011;3221;48.858;10.128;2022-12-08T02:13:57;15.70;;;11.23;;
6376;SDS011;3221;48.858;10.128;2022-12-08T02:37:38;14.87;;;11.30;;
6376;SDS011;3221;48.858;10.128;2022-12-08T02:42:46;15.37;;;11.43;;
6376;SDS011;3221;48.858;10.128;2022-12-08T02:47:46;15.93;;;11.13;;
6376;SDS011;3221;48.858;10.128;2022-12-08T02:50:14;15.23;;;11.13;;
6376;SDS011;3221;48.858;10.128;2022-12-08T02:52:44;16.00;;;11.57;;
6376;SDS011;3221;48.858;10.128;2022-12-08T03:00:38;16.20;;;11.17;;
6376;SDS011;3221;48.858;10.128;2022-12-08T03:03:20;15.67;;;11.20;;
6376;SDS011;3221;48.858;10.128;2022-12-08T03:06:24;15.40;;;10.90;;
6376;SDS011;3221;48.858;10.128;2022-12-08T03:09:01;15.27;;;11.20;;
6376;SDS011;3221;48.858;10.128;2022-12-08T03:11:39;18.60;;;11.30;;
6376;SDS011;3221;48.858;10.128;2022-12-08T03:14:15;14.97;;;10.37;;
6376;SDS011;3221;48.858;10.128;2022-12-08T03:16:44;15.90;;;11.23;;
6376;SDS011;3221;48.858;10.128;2022-12-08T03:19:18;14.37;;;10.53;;
6376;SDS011;3221;48.858;10.128;2022-12-08T03:21:50;14.53;;;10.53;;
6376;SDS011;3221;48.858;10.128;2022-12-08T03:24:25;15.90;;;10.47;;
6376;SDS011;3221;48.858;10.128;2022-12-08T03:26:56;15.43;;;10.67;;
6376;SDS011;3221;48.858;10.128;2022-12-08T03:29:28;14.40;;;10.33;;
6376;SDS011;3221;48.858;10.128;2022-12-08T03:32:00;14.63;;;10.40;;
6376;SDS011;3221;48.858;10.128;2022-12-08T03:34:39;14.33;;;10.10;;
6376;SDS011;3221;48.858;10.128;2022-12-08T03:37:10;15.00;;;10.80;;
6376;SDS011;3221;48.858;10.128;2022-12-08T03:39:37;15.70;;;11.07;;
6376;SDS011;3221;48.858;10.128;2022-12-08T03:42:04;15.03;;;10.40;;
6376;SDS011;3221;48.858;10.128;2022-12-08T03:44:30;14.30;;;10.00;;
6376;SDS011;3221;48.858;10.128;2022-12-08T03:46:57;13.93;;;10.00;;
6376;SDS011;3221;48.858;10.128;2022-12-08T03:49:24;15.37;;;10.50;;
6376;SDS011;3221;48.858;10.128;2022-12-08T03:51:51;16.27;;;10.53;;
6376;SDS011;3221;48.858;10.128;2022-12-08T03:54:18;15.53;;;10.87;;
6376;SDS011;3221;48.858;10.128;2022-12-08T03:56:44;14.93;;;10.17;;
6376;SDS011;3221;48.858;10.128;2022-12-08T03:59:11;14.33;;;10.17;;
6376;SDS011;3221;48.858;10.128;2022-12-08T04:01:38;15.03;;;10.43;;
6376;SDS011;3221;48.858;10.128;2022-12-08T04:04:05;16.03;;;11.03;;
6376;SDS011;3221;48.858;10.128;2022-12-08T04:06:32;16.83;;;10.67;;
6376;SDS011;3221;48.858;10.128;2022-12-08T04:08:59;15.13;;;10.70;;
6376;SDS011;3221;48.858;10.128;2022-12-08T04:11:26;15.00;;;11.33;;
6376;SDS011;3221;48.858;10.128;2022-12-08T04:13:53;16.43;;;11.23;;
6376;SDS011;3221;48.858;10.128;2022-12-08T04:16:21;18.13;;;11.47;;
6376;SDS011;3221;48.858;10.128;2022-12-08T04:18:50;17.67;;;11.60;;
6376;SDS011;3221;48.858;10.128;2022-12-08T04:21:17;16.63;;;11.97;;
6376;SDS011;3221;48.858;10.128;2022-12-08T04:23:45;16.50;;;11.80;;
6376;SDS011;3221;48.858;10.128;2022-12-08T04:26:12;16.77;;;12.10;;
6376;SDS011;3221;48.858;10.128;2022-12-08T04:28:39;16.10;;;11.67;;
6376;SDS011;3221;48.858;10.128;2022-12-08T04:31:06;16.80;;;11.73;;
6376;SDS011;3221;48.858;10.128;2022-12-08T04:33:33;16.47;;;11.83;;
6376;SDS011;3221;48.858;10.128;2022-12-08T04:36:01;16.53;;;11.70;;
6376;SDS011;3221;48.858;10.128;2022-12-08T04:38:29;16.90;;;11.90;;
6376;SDS011;3221;48.858;10.128;2022-12-08T04:40:56;16.63;;;11.10;;
6376;SDS011;3221;48.858;10.128;2022-12-08T04:43:22;14.80;;;11.03;;
6376;SDS011;3221;48.858;10.128;2022-12-08T04:45:49;16.73;;;11.30;;
6376;SDS011;3221;48.858;10.128;2022-12-08T04:48:16;15.13;;;11.40;;
6376;SDS011;3221;48.858;10.128;2022-12-08T04:50:43;15.50;;;10.83;;
6376;SDS011;3221;48.858;10.128;2022-12-08T04:53:11;16.10;;;11.13;;
6376;SDS011;3221;48.858;10.128;2022-12-08T04:55:39;15.40;;;10.80;;
6376;SDS011;3221;48.858;10.128;2022-12-08T04:58:12;17.27;;;11.90;;
6376;SDS011;3221;48.858;10.128;2022-12-08T05:00:41;16.70;;;11.27;;
6376;SDS011;3221;48.858;10.128;2022-12-08T05:03:08;18.30;;;12.10;;
6376;SDS011;3221;48.858;10.128;2022-12-08T05:05:35;16.67;;;11.73;;
6376;SDS011;3221;48.858;10.128;2022-12-08T05:08:02;17.73;;;12.07;;
6376;SDS011;3221;48.858;10.128;2022-12-08T05:10:30;16.13;;;11.70;;
6376;SDS011;3221;48.858;10.128;2022-12-08T05:12:58;15.93;;;11.20;;
6376;SDS011;3221;48.858;10.128;2022-12-08T05:15:25;14.67;;;11.40;;
6376;SDS011;3221;48.858;10.128;2022-12-08T05:17:52;16.27;;;12.27;;
6376;SDS011;3221;48.858;10.128;2022-12-08T05:20:19;17.40;;;12.07;;
6376;SDS011;3221;48.858;10.128;2022-12-08T05:22:46;16.50;;;11.13;;
6376;SDS011;3221;48.858;10.128;2022-12-08T05:25:13;18.03;;;12.63;;
6376;SDS011;3221;48.858;10.128;2022-12-08T05:27:40;15.30;;;11.00;;
6376;SDS011;3221;48.858;10.128;2022-12-08T05:30:08;17.03;;;11.77;;
6376;SDS011;3221;48.858;10.128;2022-12-08T05:32:35;14.27;;;11.07;;
6376;SDS011;3221;48.858;10.128;2022-12-08T05:35:02;16.17;;;11.73;;
6376;SDS011;3221;48.858;10.128;2022-12-08T05:37:29;16.57;;;11.57;;
6376;SDS011;3221;48.858;10.128;2022-12-08T05:39:56;18.60;;;12.73;;
6376;SDS011;3221;48.858;10.128;2022-12-08T05:42:23;17.27;;;12.50;;
6376;SDS011;3221;48.858;10.128;2022-12-08T05:44:50;15.97;;;12.20;;
6376;SDS011;3221;48.858;10.128;2022-12-08T05:47:18;17.67;;;12.30;;
6376;SDS011;3221;48.858;10.128;2022-12-08T05:49:44;17.13;;;12.33;;
6376;SDS011;3221;48.858;10.128;2022-12-08T05:52:11;18.93;;;12.90;;
6376;SDS011;3221;48.858;10.128;2022-12-08T05:54:38;18.87;;;12.63;;
6376;SDS011;3221;48.858;10.128;2022-12-08T05:57:05;18.07;;;12.57;;
6376;SDS011;3221;48.858;10.128;2022-12-08T05:59:32;16.07;;;12.50;;
6376;SDS011;3221;48.858;10.128;2022-12-08T06:01:58;17.20;;;12.03;;
6376;SDS011;3221;48.858;10.128;2022-12-08T06:04:26;17.37;;;12.03;;
6376;SDS011;3221;48.858;10.128;2022-12-08T06:06:53;17.27;;;12.13;;
6376;SDS011;3221;48.858;10.128;2022-12-08T06:09:19;18.10;;;12.77;;
6376;SDS011;3221;48.858;10.128;2022-12-08T06:11:47;16.17;;;12.07;;
6376;SDS011;3221;48.858;10.128;2022-12-08T06:14:13;16.70;;;12.43;;
6376;SDS011;3221;48.858;10.128;2022-12-08T06:16:40;16.43;;;11.83;;
6376;SDS011;3221;48.858;10.128;2022-12-08T06:19:07;16.50;;;11.77;;
6376;SDS011;3221;48.858;10.128;2022-12-08T06:21:34;16.20;;;11.10;;
6376;SDS011;3221;48.858;10.128;2022-12-08T06:24:01;15.80;;;11.17;;
6376;SDS011;3221;48.858;10.128;2022-12-08T06:26:28;17.57;;;12.00;;
6376;SDS011;3221;48.858;10.128;2022-12-08T06:28:55;17.03;;;11.17;;
6376;SDS011;3221;48.858;10.128;2022-12-08T06:31:22;17.50;;;12.50;;
6376;SDS011;3221;48.858;10.128;2022-12-08T06:33:51;15.63;;;11.57;;
6376;SDS011;3221;48.858;10.128;2022-12-08T06:36:20;15.97;;;11.53;;
6376;SDS011;3221;48.858;10.128;2022-12-08T06:38:48;16.07;;;11.13;;
6376;SDS011;3221;48.858;10.128;2022-12-08T06:41:16;15.73;;;11.43;;
6376;SDS011;3221;48.858;10.128;2022-12-08T06:43:43;15.67;;;10.70;;
6376;SDS011;3221;48.858;10.128;2022-12-08T06:46:15;14.73;;;10.90;;
6376;SDS011;3221;48.858;10.128;2022-12-08T06:48:44;15.70;;;10.93;;
6376;SDS011;3221;48.858;10.128;2022-12-08T06:51:12;15.53;;;10.53;;
6376;SDS011;3221;48.858;10.128;2022-12-08T06:53:40;16.97;;;11.13;;
6376;SDS011;3221;48.858;10.128;2022-12-08T06:56:09;15.70;;;10.57;;
6376;SDS011;3221;48.858;10.128;2022-12-08T06:58:36;16.93;;;10.73;;
6376;SDS011;3221;48.858;10.128;2022-12-08T07:01:07;14.67;;;10.93;;
6376;SDS011;3221;48.858;10.128;2022-12-08T07:03:36;17.27;;;11.60;;
6376;SDS011;3221;48.858;10.128;2022-12-08T07:06:04;12.40;;;9.50;;
6376;SDS011;3221;48.858;10.128;2022-12-08T07:08:32;14.27;;;10.10;;
6376;SDS011;3221;48.858;10.128;2022-12-08T07:11:04;14.77;;;10.20;;
6376;SDS011;3221;48.858;10.128;2022-12-08T07:13:35;13.50;;;9.87;;
6376;SDS011;3221;48.858;10.128;2022-12-08T07:16:08;15.07;;;10.00;;
6376;SDS011;3221;48.858;10.128;2022-12-08T07:18:37;13.70;;;10.07;;
6376;SDS011;3221;48.858;10.128;2022-12-08T07:21:05;13.37;;;9.70;;
6376;SDS011;3221;48.858;10.128;2022-12-08T07:23:33;15.20;;;10.63;;
6376;SDS011;3221;48.858;10.128;2022-12-08T07:26:01;15.10;;;10.03;;
6376;SDS011;3221;48.858;10.128;2022-12-08T07:28:33;14.50;;;9.97;;
6376;SDS011;3221;48.858;10.128;2022-12-08T07:31:01;14.40;;;10.33;;
6376;SDS011;3221;48.858;10.128;2022-12-08T07:33:29;15.47;;;10.77;;
6376;SDS011;3221;48.858;10.128;2022-12-08T07:35:57;14.23;;;9.37;;
6376;SDS011;3221;48.858;10.128;2022-12-08T07:38:29;13.77;;;9.60;;
6376;SDS011;3221;48.858;10.128;2022-12-08T07:40:56;12.70;;;9.53;;
6376;SDS011;3221;48.858;10.128;2022-12-08T07:43:23;12.07;;;9.03;;
6376;SDS011;3221;48.858;10.128;2022-12-08T07:45:50;13.67;;;9.43;;
6376;SDS011;3221;48.858;10.128;2022-12-08T07:48:17;14.17;;;9.43;;
6376;SDS011;3221;48.858;10.128;2022-12-08T07:50:44;13.90;;;10.00;;
6376;SDS011;3221;48.858;10.128;2022-12-08T07:53:12;15.63;;;10.40;;
6376;SDS011;3221;48.858;10.128;2022-12-08T07:55:40;13.30;;;9.80;;
6376;SDS011;3221;48.858;10.128;2022-12-08T07:58:09;14.23;;;10.07;;
6376;SDS011;3221;48.858;10.128;2022-12-08T08:00:36;15.03;;;10.57;;
6376;SDS011;3221;48.858;10.128;2022-12-08T08:03:04;15.90;;;10.70;;
6376;SDS011;3221;48.858;10.128;2022-12-08T08:05:31;15.13;;;11.30;;
6376;SDS011;3221;48.858;10.128;2022-12-08T08:07:58;15.23;;;10.80;;
6376;SDS011;3221;48.858;10.128;2022-12-08T08:10:25;14.30;;;10.57;;
6376;SDS011;3221;48.858;10.128;2022-12-08T08:12:52;14.80;;;10.60;;
6376;SDS011;3221;48.858;10.128;2022-12-08T08:15:19;15.40;;;10.33;;
6376;SDS011;3221;48.858;10.128;2022-12-08T08:17:49;14.80;;;10.30;;
6376;SDS011;3221;48.858;10.128;2022-12-08T08:20:17;14.03;;;10.30;;
6376;SDS011;3221;48.858;10.128;2022-12-08T08:22:48;13.50;;;9.40;;
6376;SDS011;3221;48.858;10.128;2022-12-08T08:25:16;14.00;;;9.43;;
6376;SDS011;3221;48.858;10.128;2022-12-08T08:27:44;12.70;;;9.30;;
6376;SDS011;3221;48.858;10.128;2022-12-08T08:30:12;12.50;;;9.10;;
6376;SDS011;3221;48.858;10.128;2022-12-08T08:32:46;13.47;;;9.80;;
6376;SDS011;3221;48.858;10.128;2022-12-08T08:35:13;13.73;;;9.10;;
6376;SDS011;3221;48.858;10.128;2022-12-08T08:37:40;13.27;;;9.33;;
6376;SDS011;3221;48.858;10.128;2022-12-08T08:40:14;13.73;;;9.67;;
6376;SDS011;3221;48.858;10.128;2022-12-08T08:42:41;12.97;;;9.50;;
6376;SDS011;3221;48.858;10.128;2022-12-08T08:45:08;13.63;;;9.20;;
6376;SDS011;3221;48.858;10.128;2022-12-08T08:47:35;12.93;;;8.73;;
6376;SDS011;3221;48.858;10.128;2022-12-08T08:50:02;13.53;;;8.87;;
6376;SDS011;3221;48.858;10.128;2022-12-08T08:52:30;12.90;;;9.27;;
6376;SDS011;3221;48.858;10.128;2022-12-08T08:54:56;13.20;;;8.83;;
6376;SDS011;3221;48.858;10.128;2022-12-08T08:57:23;14.93;;;9.30;;
6376;SDS011;3221;48.858;10.128;2022-12-08T08:59:51;12.27;;;9.00;;
6376;SDS011;3221;48.858;10.128;2022-12-08T09:02:19;12.83;;;8.73;;
6376;SDS011;3221;48.858;10.128;2022-12-08T09:04:46;11.97;;;8.97;;
6376;SDS011;3221;48.858;10.128;2022-12-08T09:07:13;12.93;;;8.73;;
6376;SDS011;3221;48.858;10.128;2022-12-08T09:09:41;11.17;;;8.50;;
6376;SDS011;3221;48.858;10.128;2022-12-08T09:12:08;12.80;;;9.03;;
6376;SDS011;3221;48.858;10.128;2022-12-08T09:14:35;12.77;;;8.60;;
6376;SDS011;3221;48.858;10.128;2022-12-08T09:17:02;12.43;;;8.10;;
6376;SDS011;3221;48.858;10.128;2022-12-08T09:19:29;11.10;;;7.73;;
6376;SDS011;3221;48.858;10.128;2022-12-08T09:21:56;11.10;;;7.33;;
6376;SDS011;3221;48.858;10.128;2022-12-08T09:24:23;10.27;;;7.23;;
6376;SDS011;3221;48.858;10.128;2022-12-08T09:26:50;11.53;;;7.83;;
6376;SDS011;3221;48.858;10.128;2022-12-08T09:29:17;10.27;;;7.53;;
6376;SDS011;3221;48.858;10.128;2022-12-08T09:31:44;10.67;;;7.40;;
6376;SDS011;3221;48.858;10.128;2022-12-08T09:34:11;11.13;;;7.20;;
6376;SDS011;3221;48.858;10.128;2022-12-08T09:36:38;10.63;;;7.33;;
6376;SDS011;3221;48.858;10.128;2022-12-08T09:39:05;10.50;;;7.67;;
6376;SDS011;3221;48.858;10.128;2022-12-08T09:41:41;9.63;;;7.03;;
6376;SDS011;3221;48.858;10.128;2022-12-08T09:50:06;11.23;;;6.77;;
6376;SDS011;3221;48.858;10.128;2022-12-08T09:52:59;10.73;;;7.33;;
6376;SDS011;3221;48.858;10.128;2022-12-08T09:58:19;11.67;;;8.37;;
6376;SDS011;3221;48.858;10.128;2022-12-08T10:00:52;10.00;;;7.53;;
6376;SDS011;3221;48.858;10.128;2022-12-08T10:03:19;11.07;;;7.97;;
6376;SDS011;3221;48.858;10.128;2022-12-08T10:08:38;11.97;;;8.50;;
6376;SDS011;3221;48.858;10.128;2022-12-08T10:11:15;13.20;;;8.57;;
6376;SDS011;3221;48.858;10.128;2022-12-08T10:14:02;11.50;;;8.20;;
6376;SDS011;3221;48.858;10.128;2022-12-08T10:16:41;14.30;;;8.87;;
6376;SDS011;3221;48.858;10.128;2022-12-08T10:19:18;11.67;;;8.60;;
6376;SDS011;3221;48.858;10.128;2022-12-08T10:21:47;13.27;;;8.47;;
6376;SDS011;3221;48.858;10.128;2022-12-08T10:26:51;12.13;;;8.70;;
6376;SDS011;3221;48.858;10.128;2022-12-08T10:29:19;9.80;;;7.70;;
6376;SDS011;3221;48.858;10.128;2022-12-08T10:31:46;10.43;;;7.93;;
6376;SDS011;3221;48.858;10.128;2022-12-08T10:34:14;10.87;;;7.97;;
6376;SDS011;3221;48.858;10.128;2022-12-08T10:36:57;11.77;;;8.83;;
6376;SDS011;3221;48.858;10.128;2022-12-08T10:47:35;10.97;;;8.30;;
6376;SDS011;3221;48.858;10.128;2022-12-08T10:52:55;11.33;;;8.23;;
6376;SDS011;3221;48.858;10.128;2022-12-08T10:55:24;12.27;;;8.30;;
6376;SDS011;3221;48.858;10.128;2022-12-08T10:57:52;11.67;;;8.67;;
6376;SDS011;3221;48.858;10.128;2022-12-08T11:00:20;12.40;;;9.07;;
6376;SDS011;3221;48.858;10.128;2022-12-08T11:02:51;11.50;;;8.63;;
6376;SDS011;3221;48.858;10.128;2022-12-08T11:05:25;10.67;;;7.93;;
6376;SDS011;3221;48.858;10.128;2022-12-08T11:07:53;23.10;;;16.10;;
6376;SDS011;3221;48.858;10.128;2022-12-08T11:10:26;17.67;;;12.77;;
6376;SDS011;3221;48.858;10.128;2022-12-08T11:12:59;14.67;;;9.97;;
6376;SDS011;3221;48.858;10.128;2022-12-08T11:15:30;14.77;;;10.63;;
6376;SDS011;3221;48.858;10.128;2022-12-08T11:18:17;16.60;;;11.00;;
6376;SDS011;3221;48.858;10.128;2022-12-08T11:20:56;15.00;;;11.47;;
6376;SDS011;3221;48.858;10.128;2022-12-08T11:23:46;12.90;;;9.17;;
6376;SDS011;3221;48.858;10.128;2022-12-08T11:26:20;14.17;;;10.13;;
6376;SDS011;3221;48.858;10.128;2022-12-08T11:28:53;13.03;;;9.93;;
6376;SDS011;3221;48.858;10.128;2022-12-08T11:31:24;12.07;;;8.83;;
6376;SDS011;3221;48.858;10.128;2022-12-08T11:33:53;13.03;;;8.63;;
6376;SDS011;3221;48.858;10.128;2022-12-08T11:36:21;10.87;;;8.40;;
6376;SDS011;3221;48.858;10.128;2022-12-08T11:38:54;11.40;;;7.97;;
6376;SDS011;3221;48.858;10.128;2022-12-08T11:41:25;10.60;;;7.53;;
6376;SDS011;3221;48.858;10.128;2022-12-08T11:46:33;10.73;;;7.60;;
6376;SDS011;3221;48.858;10.128;2022-12-08T11:49:08;10.37;;;6.80;;
6376;SDS011;3221;48.858;10.128;2022-12-08T11:54:33;10.27;;;7.27;;
6376;SDS011;3221;48.858;10.128;2022-12-08T11:57:07;9.60;;;7.17;;
6376;SDS011;3221;48.858;10.128;2022-12-08T11:59:42;9.93;;;7.30;;
6376;SDS011;3221;48.858;10.128;2022-12-08T12:02:14;9.60;;;6.97;;
6376;SDS011;3221;48.858;10.128;2022-12-08T12:04:52;10.37;;;7.90;;
6376;SDS011;3221;48.858;10.128;2022-12-08T12:17:02;9.83;;;7.47;;
6376;SDS011;3221;48.858;10.128;2022-12-08T12:19:33;10.80;;;7.93;;
6376;SDS011;3221;48.858;10.128;2022-12-08T12:22:13;12.23;;;8.17;;
6376;SDS011;3221;48.858;10.128;2022-12-08T12:24:44;10.07;;;7.53;;
6376;SDS011;3221;48.858;10.128;2022-12-08T12:30:00;10.37;;;7.33;;
6376;SDS011;3221;48.858;10.128;2022-12-08T12:38:04;12.00;;;8.60;;
6376;SDS011;3221;48.858;10.128;2022-12-08T12:41:02;11.47;;;8.53;;
6376;SDS011;3221;48.858;10.128;2022-12-08T12:43:32;11.00;;;8.57;;
6376;SDS011;3221;48.858;10.128;2022-12-08T12:48:50;13.10;;;8.93;;
6376;SDS011;3221;48.858;10.128;2022-12-08T12:53:58;12.03;;;8.27;;
6376;SDS011;3221;48.858;10.128;2022-12-08T13:07:34;13.60;;;9.93;;
6376;SDS011;3221;48.858;10.128;2022-12-08T13:12:44;13.93;;;9.80;;
6376;SDS011;3221;48.858;10.128;2022-12-08T13:15:27;13.77;;;10.13;;
6376;SDS011;3221;48.858;10.128;2022-12-08T13:18:04;12.63;;;9.40;;
6376;SDS011;3221;48.858;10.128;2022-12-08T13:20:39;14.37;;;9.60;;
6376;SDS011;3221;48.858;10.128;2022-12-08T13:23:22;13.53;;;9.67;;
6376;SDS011;3221;48.858;10.128;2022-12-08T13:25:54;11.97;;;8.97;;
6376;SDS011;3221;48.858;10.128;2022-12-08T13:31:34;12.30;;;9.23;;
6376;SDS011;3221;48.858;10.128;2022-12-08T13:37:12;14.10;;;9.93;;
6376;SDS011;3221;48.858;10.128;2022-12-08T13:39:50;19.27;;;10.60;;
6376;SDS011;3221;48.858;10.128;2022-12-08T13:42:22;13.23;;;10.13;;
6376;SDS011;3221;48.858;10.128;2022-12-08T13:49:00;13.83;;;9.47;;
6376;SDS011;3221;48.858;10.128;2022-12-08T13:51:20;13.97;;;9.43;;
6376;SDS011;3221;48.858;10.128;2022-12-08T13:57:26;13.57;;;9.43;;
6376;SDS011;3221;48.858;10.128;2022-12-08T13:59:58;13.57;;;9.53;;
6376;SDS011;3221;48.858;10.128;2022-12-08T14:02:36;14.20;;;9.30;;
6376;SDS011;3221;48.858;10.128;2022-12-08T14:05:13;12.97;;;9.60;;
6376;SDS011;3221;48.858;10.128;2022-12-08T14:07:45;11.37;;;9.10;;
6376;SDS011;3221;48.858;10.128;2022-12-08T14:10:26;15.83;;;9.23;;
6376;SDS011;3221;48.858;10.128;2022-12-08T14:12:58;14.47;;;9.00;;
6376;SDS011;3221;48.858;10.128;2022-12-08T14:15:31;13.80;;;9.23;;
6376;SDS011;3221;48.858;10.128;2022-12-08T14:18:04;12.50;;;9.00;;
6376;SDS011;3221;48.858;10.128;2022-12-08T14:20:33;11.83;;;9.00;;
6376;SDS011;3221;48.858;10.128;2022-12-08T14:23:20;12.43;;;8.80;;
6376;SDS011;3221;48.858;10.128;2022-12-08T14:25:47;13.57;;;9.10;;
6376;SDS011;3221;48.858;10.128;2022-12-08T14:28:14;13.63;;;9.17;;
6376;SDS011;3221;48.858;10.128;2022-12-08T14:30:42;13.57;;;8.97;;
6376;SDS011;3221;48.858;10.128;2022-12-08T14:33:13;11.70;;;8.70;;
6376;SDS011;3221;48.858;10.128;2022-12-08T14:35:42;13.23;;;9.30;;
6376;SDS011;3221;48.858;10.128;2022-12-08T14:38:20;10.90;;;8.20;;
6376;SDS011;3221;48.858;10.128;2022-12-08T14:41:00;11.63;;;8.30;;
6376;SDS011;3221;48.858;10.128;2022-12-08T14:43:29;12.87;;;8.70;;
6376;SDS011;3221;48.858;10.128;2022-12-08T14:46:18;12.57;;;8.17;;
6376;SDS011;3221;48.858;10.128;2022-12-08T14:48:47;11.07;;;7.90;;
6376;SDS011;3221;48.858;10.128;2022-12-08T14:54:00;13.27;;;7.67;;
6376;SDS011;3221;48.858;10.128;2022-12-08T14:59:17;13.27;;;7.57;;
6376;SDS011;3221;48.858;10.128;2022-12-08T15:01:49;10.23;;;7.57;;
6376;SDS011;3221;48.858;10.128;2022-12-08T15:04:18;11.63;;;7.80;;
6376;SDS011;3221;48.858;10.128;2022-12-08T15:06:50;11.53;;;7.60;;
6376;SDS011;3221;48.858;10.128;2022-12-08T15:09:27;10.40;;;7.17;;
6376;SDS011;3221;48.858;10.128;2022-12-08T15:12:02;11.87;;;6.90;;
6376;SDS011;3221;48.858;10.128;2022-12-08T15:14:35;10.37;;;7.00;;
6376;SDS011;3221;48.858;10.128;2022-12-08T15:17:22;8.53;;;6.40;;
6376;SDS011;3221;48.858;10.128;2022-12-08T15:20:06;8.53;;;6.60;;
6376;SDS011;3221;48.858;10.128;2022-12-08T15:22:56;10.20;;;6.83;;
6376;SDS011;3221;48.858;10.128;2022-12-08T15:25:23;8.43;;;6.10;;
6376;SDS011;3221;48.858;10.128;2022-12-08T15:27:50;9.03;;;6.40;;
6376;SDS011;3221;48.858;10.128;2022-12-08T15:30:21;8.90;;;6.33;;
6376;SDS011;3221;48.858;10.128;2022-12-08T15:32:51;9.97;;;6.23;;
6376;SDS011;3221;48.858;10.128;2022-12-08T15:35:21;11.37;;;7.50;;
6376;SDS011;3221;48.858;10.128;2022-12-08T15:37:48;11.53;;;7.53;;
6376;SDS011;3221;48.858;10.128;2022-12-08T15:40:16;10.70;;;7.97;;
6376;SDS011;3221;48.858;10.128;2022-12-08T15:42:44;10.77;;;7.70;;
6376;SDS011;3221;48.858;10.128;2022-12-08T15:45:12;10.03;;;7.23;;
6376;SDS011;3221;48.858;10.128;2022-12-08T15:47:40;11.53;;;7.27;;
6376;SDS011;3221;48.858;10.128;2022-12-08T15:50:15;8.97;;;6.80;;
6376;SDS011;3221;48.858;10.128;2022-12-08T15:52:43;10.50;;;6.63;;
6376;SDS011;3221;48.858;10.128;2022-12-08T15:55:11;8.60;;;6.57;;
6376;SDS011;3221;48.858;10.128;2022-12-08T15:57:42;11.40;;;6.70;;
6376;SDS011;3221;48.858;10.128;2022-12-08T16:00:32;9.63;;;6.20;;
6376;SDS011;3221;48.858;10.128;2022-12-08T16:03:23;8.90;;;6.53;;
6376;SDS011;3221;48.858;10.128;2022-12-08T16:06:19;7.87;;;6.37;;
6376;SDS011;3221;48.858;10.128;2022-12-08T16:09:20;8.40;;;6.50;;
6376;SDS011;3221;48.858;10.128;2022-12-08T16:11:54;9.07;;;6.60;;
6376;SDS011;3221;48.858;10.128;2022-12-08T16:14:40;8.57;;;6.37;;
6376;SDS011;3221;48.858;10.128;2022-12-08T16:17:29;9.37;;;6.47;;
6376;SDS011;3221;48.858;10.128;2022-12-08T16:19:57;10.47;;;7.10;;
6376;SDS011;3221;48.858;10.128;2022-12-08T16:22:25;9.67;;;6.47;;
6376;SDS011;3221;48.858;10.128;2022-12-08T16:25:13;10.73;;;6.50;;
6376;SDS011;3221;48.858;10.128;2022-12-08T16:27:47;9.83;;;6.67;;
6376;SDS011;3221;48.858;10.128;2022-12-08T16:30:28;11.13;;;7.07;;
6376;SDS011;3221;48.858;10.128;2022-12-08T16:32:55;9.60;;;6.87;;
6376;SDS011;3221;48.858;10.128;2022-12-08T16:35:22;10.90;;;7.20;;
6376;SDS011;3221;48.858;10.128;2022-12-08T16:37:49;12.13;;;7.47;;
6376;SDS011;3221;48.858;10.128;2022-12-08T16:40:16;9.70;;;7.13;;
6376;SDS011;3221;48.858;10.128;2022-12-08T16:42:43;8.90;;;7.00;;
6376;SDS011;3221;48.858;10.128;2022-12-08T16:45:12;12.30;;;7.33;;
6376;SDS011;3221;48.858;10.128;2022-12-08T16:47:43;10.57;;;7.30;;
6376;SDS011;3221;48.858;10.128;2022-12-08T16:50:17;11.70;;;7.60;;
6376;SDS011;3221;48.858;10.128;2022-12-08T16:52:45;11.17;;;7.87;;
6376;SDS011;3221;48.858;10.128;2022-12-08T16:55:15;10.67;;;7.83;;
6376;SDS011;3221;48.858;10.128;2022-12-08T16:57:44;11.43;;;7.97;;
6376;SDS011;3221;48.858;10.128;2022-12-08T17:00:13;11.37;;;7.80;;
6376;SDS011;3221;48.858;10.128;2022-12-08T17:02:42;11.30;;;7.47;;